sensor_id;sensor_type;location;lat;lon;timestamp;P1;durP1;ratioP1;P2;durP2;ratioP2
61096;SDS011;46977;50.936;6.908;2022-11-20T00:02:57;22.48;;;10.20;;
61096;SDS011;46977;50.936;6.908;2022-11-20T00:06:01;23.55;;;10.80;;
61096;SDS011;46977;50.936;6.908;2022-11-20T00:09:04;21.30;;;10.30;;
61096;SDS011;46977;50.936;6.908;2022-11-20T00:12:07;18.27;;;9.95;;
61096;SDS011;46977;50.936;6.908;2022-11-20T00:15:09;19.40;;;10.05;;
61096;SDS011;46977;50.936;6.908;2022-11-20T00:18:12;20.23;;;9.40;;
61096;SDS011;46977;50.936;6.908;2022-11-20T00:21:17;21.05;;;10.65;;
61096;SDS011;46977;50.936;6.908;2022-11-20T00:24:20;22.92;;;11.43;;
61096;SDS011;46977;50.936;6.908;2022-11-20T00:27:23;19.40;;;9.25;;
61096;SDS011;46977;50.936;6.908;2022-11-20T00:30:26;18.80;;;9.02;;
61096;SDS011;46977;50.936;6.908;2022-11-20T00:33:28;21.58;;;10.23;;
61096;SDS011;46977;50.936;6.908;2022-11-20T00:36:33;20.73;;;10.07;;
61096;SDS011;46977;50.936;6.908;2022-11-20T00:39:35;22.42;;;10.35;;
61096;SDS011;46977;50.936;6.908;2022-11-20T00:42:38;22.88;;;10.90;;
61096;SDS011;46977;50.936;6.908;2022-11-20T00:45:40;20.40;;;9.73;;
61096;SDS011;46977;50.936;6.908;2022-11-20T00:48:42;23.65;;;11.00;;
61096;SDS011;46977;50.936;6.908;2022-11-20T00:51:47;19.30;;;10.93;;
61096;SDS011;46977;50.936;6.908;2022-11-20T00:54:49;21.77;;;11.00;;
61096;SDS011;46977;50.936;6.908;2022-11-20T00:57:51;22.33;;;10.15;;
61096;SDS011;46977;50.936;6.908;2022-11-20T01:00:54;19.73;;;9.52;;
61096;SDS011;46977;50.936;6.908;2022-11-20T01:04:01;22.23;;;11.13;;
61096;SDS011;46977;50.936;6.908;2022-11-20T01:07:05;22.50;;;10.57;;
61096;SDS011;46977;50.936;6.908;2022-11-20T01:10:08;17.67;;;9.15;;
61096;SDS011;46977;50.936;6.908;2022-11-20T01:13:10;24.20;;;10.93;;
61096;SDS011;46977;50.936;6.908;2022-11-20T01:16:32;18.05;;;9.20;;
61096;SDS011;46977;50.936;6.908;2022-11-20T01:19:35;19.05;;;10.27;;
61096;SDS011;46977;50.936;6.908;2022-11-20T01:22:39;23.77;;;10.73;;
61096;SDS011;46977;50.936;6.908;2022-11-20T01:25:41;20.58;;;9.98;;
61096;SDS011;46977;50.936;6.908;2022-11-20T01:28:43;22.85;;;10.40;;
61096;SDS011;46977;50.936;6.908;2022-11-20T01:31:46;23.85;;;10.25;;
61096;SDS011;46977;50.936;6.908;2022-11-20T01:34:49;21.42;;;10.15;;
61096;SDS011;46977;50.936;6.908;2022-11-20T01:37:52;21.25;;;10.52;;
61096;SDS011;46977;50.936;6.908;2022-11-20T01:40:55;20.35;;;10.60;;
61096;SDS011;46977;50.936;6.908;2022-11-20T01:43:57;21.80;;;10.63;;
61096;SDS011;46977;50.936;6.908;2022-11-20T01:47:00;21.05;;;10.48;;
61096;SDS011;46977;50.936;6.908;2022-11-20T01:50:05;23.55;;;11.10;;
61096;SDS011;46977;50.936;6.908;2022-11-20T01:53:09;20.70;;;10.63;;
61096;SDS011;46977;50.936;6.908;2022-11-20T01:56:15;22.67;;;9.88;;
61096;SDS011;46977;50.936;6.908;2022-11-20T01:59:17;20.73;;;10.43;;
61096;SDS011;46977;50.936;6.908;2022-11-20T02:02:21;21.13;;;9.73;;
61096;SDS011;46977;50.936;6.908;2022-11-20T02:05:25;18.02;;;9.20;;
61096;SDS011;46977;50.936;6.908;2022-11-20T02:08:32;21.17;;;9.98;;
61096;SDS011;46977;50.936;6.908;2022-11-20T02:11:34;21.52;;;10.57;;
61096;SDS011;46977;50.936;6.908;2022-11-20T02:14:37;19.58;;;9.88;;
61096;SDS011;46977;50.936;6.908;2022-11-20T02:17:39;23.13;;;10.45;;
61096;SDS011;46977;50.936;6.908;2022-11-20T02:20:41;22.10;;;10.57;;
61096;SDS011;46977;50.936;6.908;2022-11-20T02:27:14;19.02;;;8.90;;
61096;SDS011;46977;50.936;6.908;2022-11-20T02:30:17;18.02;;;9.07;;
61096;SDS011;46977;50.936;6.908;2022-11-20T02:33:19;18.02;;;9.20;;
61096;SDS011;46977;50.936;6.908;2022-11-20T02:36:22;23.35;;;11.15;;
61096;SDS011;46977;50.936;6.908;2022-11-20T02:39:27;21.88;;;10.32;;
61096;SDS011;46977;50.936;6.908;2022-11-20T02:42:30;19.10;;;8.77;;
61096;SDS011;46977;50.936;6.908;2022-11-20T02:45:32;15.80;;;7.07;;
61096;SDS011;46977;50.936;6.908;2022-11-20T02:48:35;19.55;;;9.25;;
61096;SDS011;46977;50.936;6.908;2022-11-20T02:51:37;23.63;;;10.65;;
61096;SDS011;46977;50.936;6.908;2022-11-20T02:54:41;17.83;;;10.00;;
61096;SDS011;46977;50.936;6.908;2022-11-20T02:57:43;16.23;;;7.78;;
61096;SDS011;46977;50.936;6.908;2022-11-20T03:00:45;19.73;;;10.48;;
61096;SDS011;46977;50.936;6.908;2022-11-20T03:03:48;20.13;;;9.98;;
61096;SDS011;46977;50.936;6.908;2022-11-20T03:06:50;20.98;;;9.80;;
61096;SDS011;46977;50.936;6.908;2022-11-20T03:09:54;19.83;;;9.63;;
61096;SDS011;46977;50.936;6.908;2022-11-20T03:12:56;20.58;;;9.93;;
61096;SDS011;46977;50.936;6.908;2022-11-20T03:16:04;20.58;;;10.30;;
61096;SDS011;46977;50.936;6.908;2022-11-20T03:19:07;21.45;;;10.45;;
61096;SDS011;46977;50.936;6.908;2022-11-20T03:22:09;19.30;;;9.68;;
61096;SDS011;46977;50.936;6.908;2022-11-20T03:25:13;21.13;;;10.23;;
61096;SDS011;46977;50.936;6.908;2022-11-20T03:28:15;20.17;;;9.40;;
61096;SDS011;46977;50.936;6.908;2022-11-20T03:31:18;16.35;;;9.73;;
61096;SDS011;46977;50.936;6.908;2022-11-20T03:34:22;17.95;;;9.43;;
61096;SDS011;46977;50.936;6.908;2022-11-20T03:37:24;20.77;;;10.27;;
61096;SDS011;46977;50.936;6.908;2022-11-20T03:40:28;25.02;;;11.02;;
61096;SDS011;46977;50.936;6.908;2022-11-20T03:43:31;19.70;;;10.07;;
61096;SDS011;46977;50.936;6.908;2022-11-20T03:46:33;19.30;;;9.38;;
61096;SDS011;46977;50.936;6.908;2022-11-20T03:49:36;23.52;;;10.30;;
61096;SDS011;46977;50.936;6.908;2022-11-20T03:52:38;22.67;;;10.45;;
61096;SDS011;46977;50.936;6.908;2022-11-20T03:55:42;23.85;;;9.88;;
61096;SDS011;46977;50.936;6.908;2022-11-20T03:58:45;20.45;;;10.27;;
61096;SDS011;46977;50.936;6.908;2022-11-20T04:01:47;19.50;;;9.93;;
61096;SDS011;46977;50.936;6.908;2022-11-20T04:04:50;20.42;;;9.20;;
61096;SDS011;46977;50.936;6.908;2022-11-20T04:07:52;21.73;;;9.82;;
61096;SDS011;46977;50.936;6.908;2022-11-20T04:10:56;22.67;;;10.80;;
61096;SDS011;46977;50.936;6.908;2022-11-20T04:14:00;20.02;;;9.93;;
61096;SDS011;46977;50.936;6.908;2022-11-20T04:17:05;23.63;;;10.82;;
61096;SDS011;46977;50.936;6.908;2022-11-20T04:20:08;20.58;;;9.70;;
61096;SDS011;46977;50.936;6.908;2022-11-20T04:23:10;21.13;;;10.75;;
61096;SDS011;46977;50.936;6.908;2022-11-20T04:26:14;22.85;;;10.57;;
61096;SDS011;46977;50.936;6.908;2022-11-20T04:29:16;22.25;;;11.30;;
61096;SDS011;46977;50.936;6.908;2022-11-20T04:32:18;19.52;;;9.38;;
61096;SDS011;46977;50.936;6.908;2022-11-20T04:35:21;19.73;;;9.60;;
61096;SDS011;46977;50.936;6.908;2022-11-20T04:38:23;23.58;;;11.25;;
61096;SDS011;46977;50.936;6.908;2022-11-20T04:41:27;25.40;;;11.85;;
61096;SDS011;46977;50.936;6.908;2022-11-20T04:44:31;26.85;;;12.48;;
61096;SDS011;46977;50.936;6.908;2022-11-20T04:47:33;23.98;;;11.30;;
61096;SDS011;46977;50.936;6.908;2022-11-20T04:50:39;24.58;;;12.90;;
61096;SDS011;46977;50.936;6.908;2022-11-20T04:53:41;28.75;;;12.20;;
61096;SDS011;46977;50.936;6.908;2022-11-20T04:56:45;24.48;;;11.20;;
61096;SDS011;46977;50.936;6.908;2022-11-20T04:59:49;23.55;;;11.95;;
61096;SDS011;46977;50.936;6.908;2022-11-20T05:02:52;21.70;;;10.20;;
61096;SDS011;46977;50.936;6.908;2022-11-20T05:05:54;23.17;;;10.32;;
61096;SDS011;46977;50.936;6.908;2022-11-20T05:08:56;18.60;;;9.82;;
61096;SDS011;46977;50.936;6.908;2022-11-20T05:12:00;23.08;;;11.13;;
61096;SDS011;46977;50.936;6.908;2022-11-20T05:15:02;24.27;;;11.27;;
61096;SDS011;46977;50.936;6.908;2022-11-20T05:18:05;24.98;;;11.70;;
61096;SDS011;46977;50.936;6.908;2022-11-20T05:21:10;24.30;;;10.98;;
61096;SDS011;46977;50.936;6.908;2022-11-20T05:24:13;22.98;;;11.75;;
61096;SDS011;46977;50.936;6.908;2022-11-20T05:27:17;27.35;;;12.00;;
61096;SDS011;46977;50.936;6.908;2022-11-20T05:30:19;24.73;;;11.73;;
61096;SDS011;46977;50.936;6.908;2022-11-20T05:33:22;26.48;;;12.15;;
61096;SDS011;46977;50.936;6.908;2022-11-20T05:36:24;24.10;;;11.93;;
61096;SDS011;46977;50.936;6.908;2022-11-20T05:39:27;20.55;;;10.73;;
61096;SDS011;46977;50.936;6.908;2022-11-20T05:42:31;27.33;;;11.00;;
61096;SDS011;46977;50.936;6.908;2022-11-20T05:45:33;20.88;;;10.85;;
61096;SDS011;46977;50.936;6.908;2022-11-20T05:48:36;23.17;;;11.52;;
61096;SDS011;46977;50.936;6.908;2022-11-20T05:51:39;23.85;;;11.35;;
61096;SDS011;46977;50.936;6.908;2022-11-20T05:54:41;24.55;;;10.77;;
61096;SDS011;46977;50.936;6.908;2022-11-20T05:57:45;22.02;;;11.20;;
61096;SDS011;46977;50.936;6.908;2022-11-20T06:00:47;24.67;;;11.07;;
61096;SDS011;46977;50.936;6.908;2022-11-20T06:03:50;23.67;;;11.45;;
61096;SDS011;46977;50.936;6.908;2022-11-20T06:06:53;24.38;;;11.25;;
61096;SDS011;46977;50.936;6.908;2022-11-20T06:09:55;21.65;;;11.13;;
61096;SDS011;46977;50.936;6.908;2022-11-20T06:12:59;26.25;;;12.82;;
61096;SDS011;46977;50.936;6.908;2022-11-20T06:16:01;25.00;;;11.55;;
61096;SDS011;46977;50.936;6.908;2022-11-20T06:19:04;26.30;;;11.77;;
61096;SDS011;46977;50.936;6.908;2022-11-20T06:22:06;23.90;;;11.85;;
61096;SDS011;46977;50.936;6.908;2022-11-20T06:25:08;25.00;;;11.52;;
61096;SDS011;46977;50.936;6.908;2022-11-20T06:28:12;25.75;;;11.27;;
61096;SDS011;46977;50.936;6.908;2022-11-20T06:31:15;25.70;;;11.13;;
61096;SDS011;46977;50.936;6.908;2022-11-20T06:34:18;26.83;;;12.50;;
61096;SDS011;46977;50.936;6.908;2022-11-20T06:37:21;27.52;;;12.07;;
61096;SDS011;46977;50.936;6.908;2022-11-20T06:40:23;22.92;;;11.68;;
61096;SDS011;46977;50.936;6.908;2022-11-20T06:43:28;26.30;;;13.10;;
61096;SDS011;46977;50.936;6.908;2022-11-20T06:46:30;27.20;;;12.65;;
61096;SDS011;46977;50.936;6.908;2022-11-20T06:49:33;28.75;;;11.93;;
61096;SDS011;46977;50.936;6.908;2022-11-20T06:52:36;28.20;;;13.50;;
61096;SDS011;46977;50.936;6.908;2022-11-20T06:55:44;25.80;;;13.07;;
61096;SDS011;46977;50.936;6.908;2022-11-20T06:58:48;31.95;;;13.98;;
61096;SDS011;46977;50.936;6.908;2022-11-20T07:01:51;28.05;;;12.27;;
61096;SDS011;46977;50.936;6.908;2022-11-20T07:04:53;26.75;;;12.93;;
61096;SDS011;46977;50.936;6.908;2022-11-20T07:07:55;27.35;;;13.40;;
61096;SDS011;46977;50.936;6.908;2022-11-20T07:10:58;29.33;;;13.15;;
61096;SDS011;46977;50.936;6.908;2022-11-20T07:14:03;27.10;;;12.25;;
61096;SDS011;46977;50.936;6.908;2022-11-20T07:17:05;26.27;;;12.48;;
61096;SDS011;46977;50.936;6.908;2022-11-20T07:20:07;27.17;;;11.80;;
61096;SDS011;46977;50.936;6.908;2022-11-20T07:23:11;25.00;;;11.57;;
61096;SDS011;46977;50.936;6.908;2022-11-20T07:26:13;27.75;;;12.65;;
61096;SDS011;46977;50.936;6.908;2022-11-20T07:29:16;26.67;;;12.27;;
61096;SDS011;46977;50.936;6.908;2022-11-20T07:32:19;27.00;;;12.52;;
61096;SDS011;46977;50.936;6.908;2022-11-20T07:35:21;25.40;;;12.38;;
61096;SDS011;46977;50.936;6.908;2022-11-20T07:38:24;25.88;;;12.32;;
61096;SDS011;46977;50.936;6.908;2022-11-20T07:41:26;27.27;;;12.57;;
61096;SDS011;46977;50.936;6.908;2022-11-20T07:44:30;33.13;;;13.35;;
61096;SDS011;46977;50.936;6.908;2022-11-20T07:47:34;24.70;;;12.35;;
61096;SDS011;46977;50.936;6.908;2022-11-20T07:50:37;28.65;;;13.30;;
61096;SDS011;46977;50.936;6.908;2022-11-20T07:53:39;29.02;;;13.40;;
61096;SDS011;46977;50.936;6.908;2022-11-20T07:56:41;27.17;;;12.25;;
61096;SDS011;46977;50.936;6.908;2022-11-20T07:59:45;26.88;;;12.70;;
61096;SDS011;46977;50.936;6.908;2022-11-20T08:02:47;26.48;;;11.77;;
61096;SDS011;46977;50.936;6.908;2022-11-20T08:05:50;25.30;;;12.07;;
61096;SDS011;46977;50.936;6.908;2022-11-20T08:08:52;21.52;;;11.30;;
61096;SDS011;46977;50.936;6.908;2022-11-20T08:11:55;23.83;;;11.25;;
61096;SDS011;46977;50.936;6.908;2022-11-20T08:15:17;25.00;;;11.63;;
61096;SDS011;46977;50.936;6.908;2022-11-20T08:18:19;23.58;;;10.82;;
61096;SDS011;46977;50.936;6.908;2022-11-20T08:21:32;24.75;;;11.20;;
61096;SDS011;46977;50.936;6.908;2022-11-20T08:24:39;27.92;;;11.77;;
61096;SDS011;46977;50.936;6.908;2022-11-20T08:27:41;23.33;;;11.80;;
61096;SDS011;46977;50.936;6.908;2022-11-20T08:30:45;19.58;;;10.52;;
61096;SDS011;46977;50.936;6.908;2022-11-20T08:33:47;26.90;;;12.02;;
61096;SDS011;46977;50.936;6.908;2022-11-20T08:36:50;23.75;;;11.82;;
61096;SDS011;46977;50.936;6.908;2022-11-20T08:39:52;26.05;;;11.10;;
61096;SDS011;46977;50.936;6.908;2022-11-20T08:42:55;21.60;;;11.00;;
61096;SDS011;46977;50.936;6.908;2022-11-20T08:46:00;17.35;;;9.85;;
61096;SDS011;46977;50.936;6.908;2022-11-20T08:49:02;23.85;;;11.15;;
61096;SDS011;46977;50.936;6.908;2022-11-20T08:52:05;26.80;;;13.20;;
61096;SDS011;46977;50.936;6.908;2022-11-20T08:55:10;19.70;;;10.35;;
61096;SDS011;46977;50.936;6.908;2022-11-20T08:58:12;24.63;;;11.55;;
61096;SDS011;46977;50.936;6.908;2022-11-20T09:01:16;22.30;;;11.07;;
61096;SDS011;46977;50.936;6.908;2022-11-20T09:04:18;22.33;;;11.68;;
61096;SDS011;46977;50.936;6.908;2022-11-20T09:07:21;23.55;;;12.00;;
61096;SDS011;46977;50.936;6.908;2022-11-20T09:10:24;24.33;;;10.85;;
61096;SDS011;46977;50.936;6.908;2022-11-20T09:13:27;28.70;;;12.07;;
61096;SDS011;46977;50.936;6.908;2022-11-20T09:16:31;26.33;;;11.98;;
61096;SDS011;46977;50.936;6.908;2022-11-20T09:19:34;22.92;;;12.50;;
61096;SDS011;46977;50.936;6.908;2022-11-20T09:22:39;22.75;;;10.27;;
61096;SDS011;46977;50.936;6.908;2022-11-20T09:25:41;22.92;;;10.57;;
61096;SDS011;46977;50.936;6.908;2022-11-20T09:28:44;24.95;;;10.52;;
61096;SDS011;46977;50.936;6.908;2022-11-20T09:31:47;22.40;;;10.55;;
61096;SDS011;46977;50.936;6.908;2022-11-20T09:34:50;23.15;;;10.93;;
61096;SDS011;46977;50.936;6.908;2022-11-20T09:37:52;22.05;;;10.70;;
61096;SDS011;46977;50.936;6.908;2022-11-20T09:40:56;23.55;;;11.35;;
61096;SDS011;46977;50.936;6.908;2022-11-20T09:44:02;24.50;;;12.48;;
61096;SDS011;46977;50.936;6.908;2022-11-20T09:47:16;23.30;;;10.98;;
61096;SDS011;46977;50.936;6.908;2022-11-20T09:50:29;25.30;;;10.70;;
61096;SDS011;46977;50.936;6.908;2022-11-20T09:53:35;24.60;;;11.90;;
61096;SDS011;46977;50.936;6.908;2022-11-20T09:56:43;27.40;;;13.38;;
61096;SDS011;46977;50.936;6.908;2022-11-20T09:59:48;28.30;;;12.18;;
61096;SDS011;46977;50.936;6.908;2022-11-20T10:02:55;21.60;;;10.82;;
61096;SDS011;46977;50.936;6.908;2022-11-20T10:05:59;25.20;;;11.52;;
61096;SDS011;46977;50.936;6.908;2022-11-20T10:09:08;20.50;;;10.48;;
61096;SDS011;46977;50.936;6.908;2022-11-20T10:12:23;23.83;;;10.60;;
61096;SDS011;46977;50.936;6.908;2022-11-20T10:15:31;26.08;;;11.98;;
61096;SDS011;46977;50.936;6.908;2022-11-20T10:18:41;27.92;;;11.85;;
61096;SDS011;46977;50.936;6.908;2022-11-20T10:21:49;25.77;;;11.57;;
61096;SDS011;46977;50.936;6.908;2022-11-20T10:31:28;30.35;;;14.10;;
61096;SDS011;46977;50.936;6.908;2022-11-20T10:34:35;30.48;;;14.20;;
61096;SDS011;46977;50.936;6.908;2022-11-20T10:37:44;29.60;;;14.15;;
61096;SDS011;46977;50.936;6.908;2022-11-20T10:40:48;33.42;;;13.55;;
61096;SDS011;46977;50.936;6.908;2022-11-20T10:43:52;26.63;;;12.60;;
61096;SDS011;46977;50.936;6.908;2022-11-20T10:46:58;32.63;;;13.93;;
61096;SDS011;46977;50.936;6.908;2022-11-20T10:50:03;29.13;;;13.95;;
61096;SDS011;46977;50.936;6.908;2022-11-20T10:53:08;27.42;;;12.98;;
61096;SDS011;46977;50.936;6.908;2022-11-20T10:56:19;28.05;;;12.52;;
61096;SDS011;46977;50.936;6.908;2022-11-20T10:59:28;28.17;;;13.35;;
61096;SDS011;46977;50.936;6.908;2022-11-20T11:02:39;30.77;;;12.88;;
61096;SDS011;46977;50.936;6.908;2022-11-20T11:05:46;32.85;;;13.98;;
61096;SDS011;46977;50.936;6.908;2022-11-20T11:08:51;27.38;;;13.57;;
61096;SDS011;46977;50.936;6.908;2022-11-20T11:11:55;32.72;;;14.93;;
61096;SDS011;46977;50.936;6.908;2022-11-20T11:15:02;32.63;;;15.35;;
61096;SDS011;46977;50.936;6.908;2022-11-20T11:18:05;27.60;;;12.45;;
61096;SDS011;46977;50.936;6.908;2022-11-20T11:21:12;26.77;;;13.40;;
61096;SDS011;46977;50.936;6.908;2022-11-20T11:24:18;29.20;;;13.50;;
61096;SDS011;46977;50.936;6.908;2022-11-20T11:27:46;31.33;;;12.10;;
61096;SDS011;46977;50.936;6.908;2022-11-20T11:30:48;26.70;;;12.20;;
61096;SDS011;46977;50.936;6.908;2022-11-20T11:34:03;30.15;;;14.35;;
61096;SDS011;46977;50.936;6.908;2022-11-20T11:37:13;29.23;;;12.88;;
61096;SDS011;46977;50.936;6.908;2022-11-20T11:40:19;26.65;;;14.27;;
61096;SDS011;46977;50.936;6.908;2022-11-20T11:43:26;31.63;;;13.90;;
61096;SDS011;46977;50.936;6.908;2022-11-20T11:46:53;27.27;;;12.80;;
61096;SDS011;46977;50.936;6.908;2022-11-20T11:50:01;27.85;;;13.40;;
61096;SDS011;46977;50.936;6.908;2022-11-20T11:53:08;26.13;;;12.77;;
61096;SDS011;46977;50.936;6.908;2022-11-20T11:56:12;29.15;;;13.20;;
61096;SDS011;46977;50.936;6.908;2022-11-20T11:59:22;30.38;;;12.85;;
61096;SDS011;46977;50.936;6.908;2022-11-20T12:02:31;30.25;;;13.45;;
61096;SDS011;46977;50.936;6.908;2022-11-20T12:05:39;28.63;;;14.23;;
61096;SDS011;46977;50.936;6.908;2022-11-20T12:08:46;30.35;;;13.43;;
61096;SDS011;46977;50.936;6.908;2022-11-20T12:11:53;26.23;;;11.88;;
61096;SDS011;46977;50.936;6.908;2022-11-20T12:14:58;32.92;;;14.57;;
61096;SDS011;46977;50.936;6.908;2022-11-20T12:18:00;32.25;;;13.32;;
61096;SDS011;46977;50.936;6.908;2022-11-20T12:21:05;30.50;;;14.27;;
61096;SDS011;46977;50.936;6.908;2022-11-20T12:27:43;27.65;;;11.05;;
61096;SDS011;46977;50.936;6.908;2022-11-20T12:30:58;30.20;;;13.00;;
61096;SDS011;46977;50.936;6.908;2022-11-20T12:34:24;31.52;;;11.27;;
61096;SDS011;46977;50.936;6.908;2022-11-20T12:37:36;29.13;;;13.43;;
61096;SDS011;46977;50.936;6.908;2022-11-20T12:40:43;27.20;;;11.27;;
61096;SDS011;46977;50.936;6.908;2022-11-20T12:43:50;26.10;;;11.52;;
61096;SDS011;46977;50.936;6.908;2022-11-20T12:47:24;31.80;;;14.25;;
61096;SDS011;46977;50.936;6.908;2022-11-20T12:50:32;31.20;;;13.68;;
61096;SDS011;46977;50.936;6.908;2022-11-20T12:54:06;29.17;;;12.73;;
61096;SDS011;46977;50.936;6.908;2022-11-20T12:57:29;24.48;;;12.45;;
61096;SDS011;46977;50.936;6.908;2022-11-20T13:00:38;27.65;;;12.70;;
61096;SDS011;46977;50.936;6.908;2022-11-20T13:03:46;28.55;;;13.52;;
61096;SDS011;46977;50.936;6.908;2022-11-20T13:06:51;30.77;;;14.63;;
61096;SDS011;46977;50.936;6.908;2022-11-20T13:09:53;23.05;;;11.43;;
61096;SDS011;46977;50.936;6.908;2022-11-20T13:12:58;29.73;;;12.90;;
61096;SDS011;46977;50.936;6.908;2022-11-20T13:16:04;27.38;;;12.35;;
61096;SDS011;46977;50.936;6.908;2022-11-20T13:19:11;30.38;;;13.10;;
61096;SDS011;46977;50.936;6.908;2022-11-20T13:22:23;23.15;;;9.32;;
61096;SDS011;46977;50.936;6.908;2022-11-20T13:25:26;26.63;;;11.98;;
61096;SDS011;46977;50.936;6.908;2022-11-20T13:28:31;28.27;;;13.73;;
61096;SDS011;46977;50.936;6.908;2022-11-20T13:31:34;26.08;;;11.40;;
61096;SDS011;46977;50.936;6.908;2022-11-20T13:34:37;31.35;;;14.68;;
61096;SDS011;46977;50.936;6.908;2022-11-20T13:37:39;26.38;;;12.00;;
61096;SDS011;46977;50.936;6.908;2022-11-20T13:40:50;27.40;;;11.70;;
61096;SDS011;46977;50.936;6.908;2022-11-20T13:43:58;26.08;;;13.10;;
61096;SDS011;46977;50.936;6.908;2022-11-20T13:47:17;29.38;;;13.18;;
61096;SDS011;46977;50.936;6.908;2022-11-20T13:50:26;26.17;;;11.75;;
61096;SDS011;46977;50.936;6.908;2022-11-20T13:53:47;29.27;;;12.32;;
61096;SDS011;46977;50.936;6.908;2022-11-20T13:57:01;26.70;;;12.07;;
61096;SDS011;46977;50.936;6.908;2022-11-20T14:00:12;26.83;;;12.88;;
61096;SDS011;46977;50.936;6.908;2022-11-20T14:03:17;25.42;;;11.20;;
61096;SDS011;46977;50.936;6.908;2022-11-20T14:06:41;30.83;;;13.02;;
61096;SDS011;46977;50.936;6.908;2022-11-20T14:09:49;27.92;;;12.75;;
61096;SDS011;46977;50.936;6.908;2022-11-20T14:12:53;29.58;;;13.65;;
61096;SDS011;46977;50.936;6.908;2022-11-20T14:15:57;27.52;;;13.23;;
61096;SDS011;46977;50.936;6.908;2022-11-20T14:19:17;31.20;;;14.48;;
61096;SDS011;46977;50.936;6.908;2022-11-20T14:22:26;29.50;;;14.02;;
61096;SDS011;46977;50.936;6.908;2022-11-20T14:25:29;29.83;;;13.30;;
61096;SDS011;46977;50.936;6.908;2022-11-20T14:28:33;26.42;;;11.90;;
61096;SDS011;46977;50.936;6.908;2022-11-20T14:31:36;30.98;;;13.93;;
61096;SDS011;46977;50.936;6.908;2022-11-20T14:34:39;28.00;;;12.45;;
61096;SDS011;46977;50.936;6.908;2022-11-20T14:37:45;28.70;;;13.38;;
61096;SDS011;46977;50.936;6.908;2022-11-20T14:40:48;26.60;;;12.32;;
61096;SDS011;46977;50.936;6.908;2022-11-20T14:43:52;28.98;;;12.18;;
61096;SDS011;46977;50.936;6.908;2022-11-20T14:46:57;27.85;;;13.20;;
61096;SDS011;46977;50.936;6.908;2022-11-20T14:50:01;25.80;;;11.90;;
61096;SDS011;46977;50.936;6.908;2022-11-20T14:53:10;27.73;;;13.45;;
61096;SDS011;46977;50.936;6.908;2022-11-20T14:56:13;26.92;;;12.95;;
61096;SDS011;46977;50.936;6.908;2022-11-20T14:59:23;27.23;;;12.73;;
61096;SDS011;46977;50.936;6.908;2022-11-20T15:02:29;27.40;;;12.27;;
61096;SDS011;46977;50.936;6.908;2022-11-20T15:05:44;26.95;;;12.98;;
61096;SDS011;46977;50.936;6.908;2022-11-20T15:08:50;27.20;;;11.73;;
61096;SDS011;46977;50.936;6.908;2022-11-20T15:11:54;22.27;;;11.07;;
61096;SDS011;46977;50.936;6.908;2022-11-20T15:14:57;27.83;;;12.13;;
61096;SDS011;46977;50.936;6.908;2022-11-20T15:18:01;27.33;;;12.10;;
61096;SDS011;46977;50.936;6.908;2022-11-20T15:21:07;27.70;;;12.75;;
61096;SDS011;46977;50.936;6.908;2022-11-20T15:24:12;30.38;;;13.50;;
61096;SDS011;46977;50.936;6.908;2022-11-20T15:27:14;28.08;;;13.80;;
61096;SDS011;46977;50.936;6.908;2022-11-20T15:30:17;27.58;;;14.48;;
61096;SDS011;46977;50.936;6.908;2022-11-20T15:33:22;31.98;;;14.27;;
61096;SDS011;46977;50.936;6.908;2022-11-20T15:36:24;27.13;;;12.38;;
61096;SDS011;46977;50.936;6.908;2022-11-20T15:39:27;30.65;;;13.88;;
61096;SDS011;46977;50.936;6.908;2022-11-20T15:42:29;28.30;;;14.23;;
61096;SDS011;46977;50.936;6.908;2022-11-20T15:45:33;30.02;;;13.68;;
61096;SDS011;46977;50.936;6.908;2022-11-20T15:48:40;29.52;;;13.05;;
61096;SDS011;46977;50.936;6.908;2022-11-20T15:51:49;26.00;;;12.48;;
61096;SDS011;46977;50.936;6.908;2022-11-20T15:54:52;30.15;;;12.68;;
61096;SDS011;46977;50.936;6.908;2022-11-20T15:57:54;28.80;;;11.82;;
61096;SDS011;46977;50.936;6.908;2022-11-20T16:00:56;22.63;;;11.48;;
61096;SDS011;46977;50.936;6.908;2022-11-20T16:04:00;24.95;;;11.32;;
61096;SDS011;46977;50.936;6.908;2022-11-20T16:07:03;23.00;;;11.48;;
61096;SDS011;46977;50.936;6.908;2022-11-20T16:10:06;23.65;;;11.93;;
61096;SDS011;46977;50.936;6.908;2022-11-20T16:13:12;25.80;;;11.38;;
61096;SDS011;46977;50.936;6.908;2022-11-20T16:16:35;20.00;;;10.18;;
61096;SDS011;46977;50.936;6.908;2022-11-20T16:19:40;24.65;;;11.88;;
61096;SDS011;46977;50.936;6.908;2022-11-20T16:22:42;25.95;;;10.05;;
61096;SDS011;46977;50.936;6.908;2022-11-20T16:25:45;19.23;;;10.07;;
61096;SDS011;46977;50.936;6.908;2022-11-20T16:28:49;19.92;;;9.65;;
61096;SDS011;46977;50.936;6.908;2022-11-20T16:31:51;20.88;;;9.93;;
61096;SDS011;46977;50.936;6.908;2022-11-20T16:34:55;20.80;;;9.30;;
61096;SDS011;46977;50.936;6.908;2022-11-20T16:37:58;18.13;;;9.20;;
61096;SDS011;46977;50.936;6.908;2022-11-20T16:41:00;10.65;;;5.93;;
61096;SDS011;46977;50.936;6.908;2022-11-20T16:44:06;12.45;;;4.35;;
61096;SDS011;46977;50.936;6.908;2022-11-20T16:47:09;11.18;;;4.20;;
61096;SDS011;46977;50.936;6.908;2022-11-20T16:50:13;7.22;;;3.92;;
61096;SDS011;46977;50.936;6.908;2022-11-20T16:53:15;9.20;;;5.85;;
61096;SDS011;46977;50.936;6.908;2022-11-20T16:56:18;9.88;;;4.80;;
61096;SDS011;46977;50.936;6.908;2022-11-20T16:59:22;9.90;;;4.97;;
61096;SDS011;46977;50.936;6.908;2022-11-20T17:02:25;12.27;;;5.00;;
61096;SDS011;46977;50.936;6.908;2022-11-20T17:05:29;14.40;;;5.40;;
61096;SDS011;46977;50.936;6.908;2022-11-20T17:08:32;7.57;;;3.83;;
61096;SDS011;46977;50.936;6.908;2022-11-20T17:11:35;4.88;;;2.95;;
61096;SDS011;46977;50.936;6.908;2022-11-20T17:14:38;5.30;;;2.72;;
61096;SDS011;46977;50.936;6.908;2022-11-20T17:17:41;5.30;;;2.53;;
61096;SDS011;46977;50.936;6.908;2022-11-20T17:20:51;4.22;;;3.80;;
61096;SDS011;46977;50.936;6.908;2022-11-20T17:23:53;4.07;;;2.78;;
61096;SDS011;46977;50.936;6.908;2022-11-20T17:26:56;5.03;;;3.08;;
61096;SDS011;46977;50.936;6.908;2022-11-20T17:29:59;5.63;;;3.25;;
61096;SDS011;46977;50.936;6.908;2022-11-20T17:33:01;6.00;;;3.50;;
61096;SDS011;46977;50.936;6.908;2022-11-20T17:36:06;7.50;;;4.40;;
61096;SDS011;46977;50.936;6.908;2022-11-20T17:39:10;9.15;;;5.82;;
61096;SDS011;46977;50.936;6.908;2022-11-20T17:42:12;10.43;;;5.85;;
61096;SDS011;46977;50.936;6.908;2022-11-20T17:45:27;9.48;;;5.20;;
61096;SDS011;46977;50.936;6.908;2022-11-20T17:48:30;7.82;;;5.20;;
61096;SDS011;46977;50.936;6.908;2022-11-20T17:51:34;9.70;;;5.13;;
61096;SDS011;46977;50.936;6.908;2022-11-20T17:54:37;9.32;;;5.65;;
61096;SDS011;46977;50.936;6.908;2022-11-20T17:57:40;9.43;;;5.15;;
61096;SDS011;46977;50.936;6.908;2022-11-20T18:01:03;8.75;;;5.13;;
61096;SDS011;46977;50.936;6.908;2022-11-20T18:04:06;11.93;;;5.57;;
61096;SDS011;46977;50.936;6.908;2022-11-20T18:07:10;7.60;;;4.72;;
61096;SDS011;46977;50.936;6.908;2022-11-20T18:10:13;13.38;;;5.38;;
61096;SDS011;46977;50.936;6.908;2022-11-20T18:13:17;11.85;;;5.72;;
61096;SDS011;46977;50.936;6.908;2022-11-20T18:16:20;7.78;;;4.43;;
61096;SDS011;46977;50.936;6.908;2022-11-20T18:19:23;6.95;;;4.68;;
61096;SDS011;46977;50.936;6.908;2022-11-20T18:22:34;7.28;;;5.00;;